Terminal Aerodrome Forecast
Issued by NWS Boston, MA

Home | Current Version | Previous Version | Text Only | Print | Product List | Glossary On
Versions: 1 2 3 4 5 6 7 8 9 10 11 12 13 14 15 16 17 18 19 20 21
000
FTUS41 KBOX 230521
TAFBDL
TAF
KBDL 230521Z 2306/2412 18004KT P6SM SCT080
     FM231000 VRB03KT 5SM BR BKN080
     FM231300 20004KT P6SM SCT200
     FM231800 20010KT P6SM SCT250
     FM240400 VRB03KT 3SM BR BKN010
     FM240800 00000KT 2SM BR BKN008=

USA.gov is the U.S. government's official web portal to all federal, state and local government web resources and services.